Time;durP1;ratioP1;P1;durP2;ratioP2;P2;SDS_P1;SDS_P2;PMS_P1;PMS_P2;Temp;Humidity;BMP_temperature;BMP_pressure;BME280_temperature;BME280_humidity;BME280_pressure;Samples;Min_cycle;Max_cycle;Signal;HPM_P1;HPM_P2
2021/03/22 00:01:19;;;;;;;;;34.00;31.20;;;;;9.43;45.90;98150.72;6158321;28;124539;-57
2021/03/22 00:04:21;;;;;;;;;36.40;30.40;;;;;9.45;46.07;98148.59;6156670;28;125441;-57
2021/03/22 00:07:22;;;;;;;;;35.80;31.00;;;;;9.50;45.89;98154.91;6135553;28;126483;-57
2021/03/22 00:10:28;;;;;;;;;30.33;29.00;;;;;9.54;45.76;98157.94;6133324;28;127638;-57
2021/03/22 00:13:30;;;;;;;;;28.60;26.60;;;;;9.45;45.62;98146.72;6157627;28;126466;-57
2021/03/22 00:16:32;;;;;;;;;26.00;24.00;;;;;9.64;45.51;98162.75;6157764;28;125365;-57
2021/03/22 00:19:34;;;;;;;;;23.20;19.80;;;;;9.46;45.49;98132.22;6158289;28;125174;-57
2021/03/22 00:22:35;;;;;;;;;20.00;18.67;;;;;9.58;45.26;98151.03;6143761;28;126595;-57
2021/03/22 00:25:37;;;;;;;;;17.25;17.00;;;;;9.72;45.11;98157.03;6144986;28;125132;-57
2021/03/22 00:28:42;;;;;;;;;19.60;18.80;;;;;9.79;45.06;98174.69;6160730;28;125953;-57
2021/03/22 00:31:43;;;;;;;;;18.00;17.00;;;;;9.79;45.12;98177.41;6162204;28;125831;-57
2021/03/22 00:34:45;;;;;;;;;18.00;17.00;;;;;9.81;45.15;98167.22;6161959;28;127499;-57
2021/03/22 00:37:47;;;;;;;;;20.40;18.40;;;;;9.86;45.03;98185.38;6138318;28;124820;-57
2021/03/22 00:40:49;;;;;;;;;20.00;17.00;;;;;9.88;44.96;98178.69;6138240;28;124301;-57
2021/03/22 00:43:50;;;;;;;;;17.00;16.00;;;;;9.72;45.04;98155.19;6138024;28;125631;-57
2021/03/22 00:46:53;;;;;;;;;21.00;18.00;;;;;9.85;44.92;98171.09;6138261;28;125072;-57
2021/03/22 00:49:55;;;;;;;;;19.40;17.40;;;;;9.90;44.80;98170.38;6143490;28;123742;-57
2021/03/22 00:52:58;;;;;;;;;18.60;16.60;;;;;9.59;44.59;98115.03;6160810;28;125511;-57
2021/03/22 00:56:00;;;;;;;;;18.20;16.20;;;;;9.99;44.48;98175.16;6162748;28;126613;-57
2021/03/22 00:59:02;;;;;;;;;18.00;16.00;;;;;10.02;44.35;98176.56;6162756;28;127520;-57
2021/03/22 01:02:04;;;;;;;;;18.00;17.00;;;;;9.85;44.24;98167.56;6162420;28;126898;-57
2021/03/22 01:05:07;;;;;;;;;17.40;15.40;;;;;9.94;44.49;98179.63;6156935;28;127354;-57
2021/03/22 01:08:09;;;;;;;;;16.40;14.80;;;;;9.66;44.33;98141.81;6138161;28;127092;-57
2021/03/22 01:11:17;;;;;;;;;18.00;17.00;;;;;9.95;44.20;98175.88;6127075;28;127201;-57
2021/03/22 01:14:19;;;;;;;;;19.00;18.00;;;;;9.92;44.02;98179.06;6158893;28;126325;-57
2021/03/22 01:17:20;;;;;;;;;17.40;17.00;;;;;9.88;44.03;98180.53;6137073;28;124533;-57
2021/03/22 01:20:37;;;;;;;;;13.80;13.20;;;;;9.82;43.73;98178.81;6136592;28;126537;-57
2021/03/22 01:23:38;;;;;;;;;16.60;13.60;;;;;9.84;43.29;98182.06;6135326;28;127201;-57
2021/03/22 01:26:41;;;;;;;;;11.00;11.00;;;;;9.87;43.12;98185.13;6137458;28;124309;-57
2021/03/22 01:29:42;;;;;;;;;15.00;14.00;;;;;9.83;43.32;98192.03;6137244;28;126467;-57
2021/03/22 01:32:45;;;;;;;;;18.00;16.00;;;;;9.82;43.13;98192.28;6137221;28;125912;-57
2021/03/22 01:35:47;;;;;;;;;14.00;13.00;;;;;9.80;43.17;98194.38;6146121;28;126059;-57
2021/03/22 01:38:49;;;;;;;;;14.00;14.00;;;;;9.80;43.02;98199.75;6157923;28;124934;-57
2021/03/22 01:41:59;;;;;;;;;14.00;13.40;;;;;9.88;42.89;98199.41;6147526;28;127598;-57
2021/03/22 01:45:06;;;;;;;;;17.00;16.00;;;;;9.88;42.75;98204.78;6135534;28;126128;-57
2021/03/22 01:48:10;;;;;;;;;15.75;15.25;;;;;9.83;42.83;98196.59;6135298;28;126364;-57
2021/03/22 01:51:12;;;;;;;;;12.00;12.00;;;;;9.80;43.30;98203.28;6136554;28;126259;-57
2021/03/22 01:54:14;;;;;;;;;15.60;14.00;;;;;9.76;43.08;98207.47;6133391;28;125267;-57
2021/03/22 01:57:32;;;;;;;;;15.40;15.00;;;;;9.85;43.15;98213.34;6136052;28;125858;-57
2021/03/22 02:00:38;;;;;;;;;16.20;15.00;;;;;9.57;43.06;98181.72;6136560;28;124667;-57
2021/03/22 02:03:56;;;;;;;;;15.50;13.50;;;;;9.90;42.84;98222.34;6149212;28;127475;-57
2021/03/22 02:06:59;;;;;;;;;16.00;15.00;;;;;9.87;42.98;98220.09;6134687;28;125145;-57
2021/03/22 02:10:01;;;;;;;;;19.00;17.00;;;;;9.71;42.88;98204.66;6136752;28;126906;-57
2021/03/22 02:13:05;;;;;;;;;18.00;17.75;;;;;9.57;42.96;98182.53;6138271;28;127570;-57
2021/03/22 02:16:22;;;;;;;;;18.00;18.00;;;;;9.85;42.86;98214.16;6136360;28;127449;-57
2021/03/22 02:19:45;;;;;;;;;16.40;15.00;;;;;9.85;42.78;98216.03;6141001;28;123672;-57
2021/03/22 02:22:55;;;;;;;;;17.50;16.00;;;;;9.82;42.48;98206.53;6160385;28;124812;-58
2021/03/22 02:26:13;;;;;;;;;15.00;14.00;;;;;9.88;41.71;98216.38;6159461;28;124829;-58
2021/03/22 02:29:44;;;;;;;;;11.00;11.00;;;;;9.90;41.31;98224.22;6160988;28;124133;-58
2021/03/22 02:33:00;;;;;;;;;13.00;12.80;;;;;9.89;41.10;98220.72;6159665;28;124884;-58
2021/03/22 02:36:13;;;;;;;;;11.00;11.00;;;;;9.80;41.19;98229.38;6146512;28;125797;-58
2021/03/22 02:39:16;;;;;;;;;12.40;11.00;;;;;9.73;41.10;98229.47;6135886;28;126250;-58
2021/03/22 02:42:19;;;;;;;;;12.60;11.60;;;;;9.68;40.97;98225.81;6136240;28;126708;-58
2021/03/22 02:45:35;;;;;;;;;13.40;12.40;;;;;9.67;41.15;98241.19;6136039;28;125153;-58
2021/03/22 02:48:38;;;;;;;;;9.80;9.20;;;;;9.69;41.10;98252.50;6135666;28;124245;-58
2021/03/22 02:52:00;;;;;;;;;10.40;9.40;;;;;9.71;40.78;98238.84;6135782;28;126077;-58
2021/03/22 02:55:18;;;;;;;;;10.00;9.00;;;;;9.78;40.38;98242.22;6159057;28;123590;-58
2021/03/22 02:58:24;;;;;;;;;12.00;11.00;;;;;9.80;40.41;98249.03;6159156;28;122550;-58
2021/03/22 03:01:54;;;;;;;;;11.00;9.40;;;;;9.72;40.16;98256.63;6148351;28;127183;-58
2021/03/22 03:04:56;;;;;;;;;10.75;10.25;;;;;9.73;40.24;98266.31;6139498;28;124327;-58
2021/03/22 03:08:00;;;;;;;;;11.50;11.00;;;;;9.37;39.94;98216.19;6159775;28;127763;-58
2021/03/22 03:11:02;;;;;;;;;10.00;9.00;;;;;9.32;40.05;98222.25;6159982;28;124633;-58
2021/03/22 03:14:04;;;;;;;;;9.00;8.00;;;;;9.57;39.98;98270.53;6160445;28;126445;-58
2021/03/22 03:17:06;;;;;;;;;12.50;12.00;;;;;9.54;39.92;98279.03;6158572;28;124811;-58
2021/03/22 03:20:11;;;;;;;;;12.40;11.40;;;;;9.26;40.19;98238.47;6157128;28;127062;-58
2021/03/22 03:23:13;;;;;;;;;11.00;11.00;;;;;9.36;40.15;98279.94;6156205;28;126097;-58
2021/03/22 03:26:15;;;;;;;;;10.25;10.25;;;;;9.37;40.22;98292.34;6158597;28;126532;-58
2021/03/22 03:29:16;;;;;;;;;12.50;11.50;;;;;9.41;40.02;98292.69;6158339;28;127087;-58
2021/03/22 03:32:20;;;;;;;;;9.00;9.00;;;;;9.34;39.72;98306.22;6138534;28;127655;-58
2021/03/22 03:35:25;;;;;;;;;10.00;9.60;;;;;9.18;40.17;98296.13;6143472;28;124770;-58
2021/03/22 03:38:26;;;;;;;;;11.80;10.80;;;;;9.14;40.19;98294.91;6141604;28;123904;-58
2021/03/22 03:41:28;;;;;;;;;11.40;10.00;;;;;8.87;39.88;98259.47;6134430;28;125518;-58
2021/03/22 03:44:29;;;;;;;;;12.00;10.00;;;;;9.07;39.88;98305.75;6135577;28;124968;-58
2021/03/22 03:47:31;;;;;;;;;12.00;11.25;;;;;9.14;39.85;98305.66;6134808;28;127551;-58
2021/03/22 03:50:32;;;;;;;;;12.00;11.00;;;;;8.90;39.32;98269.78;6134649;28;126612;-58
2021/03/22 03:53:34;;;;;;;;;11.00;10.00;;;;;8.99;39.18;98314.13;6149036;28;125040;-58
2021/03/22 03:56:36;;;;;;;;;13.00;12.00;;;;;9.02;39.08;98307.47;6159066;28;126528;-58
2021/03/22 03:59:38;;;;;;;;;11.40;11.00;;;;;8.83;38.87;98316.59;6159752;28;125004;-58
2021/03/22 04:02:42;;;;;;;;;9.00;8.20;;;;;8.85;38.63;98325.25;6140633;28;124930;-58
2021/03/22 04:05:45;;;;;;;;;9.75;9.00;;;;;8.83;38.62;98328.19;6153993;28;126645;-58
2021/03/22 04:08:51;;;;;;;;;9.00;8.40;;;;;8.78;38.67;98328.03;6163686;28;127410;-58
2021/03/22 04:11:53;;;;;;;;;9.00;9.00;;;;;8.67;38.37;98334.97;6163654;28;124801;-58
2021/03/22 04:14:54;;;;;;;;;9.60;9.00;;;;;8.67;38.82;98332.28;6163495;28;128284;-58
2021/03/22 04:17:56;;;;;;;;;9.00;9.00;;;;;8.57;38.42;98348.09;6162752;28;125362;-58
2021/03/22 04:20:57;;;;;;;;;8.00;8.00;;;;;8.54;38.41;98345.84;6163545;28;126962;-58
2021/03/22 04:24:01;;;;;;;;;8.80;8.00;;;;;8.56;38.70;98345.59;6161905;28;127786;-58
2021/03/22 04:27:03;;;;;;;;;7.00;6.00;;;;;8.53;38.61;98328.09;6162974;28;125593;-58
2021/03/22 04:30:06;;;;;;;;;9.00;9.00;;;;;8.68;39.02;98357.28;6148533;28;125419;-58
2021/03/22 04:33:08;;;;;;;;;10.60;9.00;;;;;8.70;38.72;98358.69;6138246;28;124936;-58
2021/03/22 04:36:10;;;;;;;;;10.00;9.80;;;;;8.61;38.90;98362.72;6155511;28;125269;-58
2021/03/22 04:39:12;;;;;;;;;8.60;8.00;;;;;8.64;38.62;98367.66;6162593;28;126823;-58
2021/03/22 04:42:14;;;;;;;;;9.00;8.00;;;;;8.54;38.56;98355.78;6162552;28;124936;-58
2021/03/22 04:45:17;;;;;;;;;6.00;5.40;;;;;8.72;38.56;98376.47;6160535;28;126590;-58
2021/03/22 04:48:18;;;;;;;;;8.00;8.00;;;;;8.72;38.28;98371.09;6161209;28;126258;-58
2021/03/22 04:51:20;;;;;;;;;8.40;8.40;;;;;8.68;38.15;98378.78;6161338;28;125325;-58
2021/03/22 04:54:21;;;;;;;;;9.00;8.00;;;;;8.77;38.35;98372.06;6162471;28;125450;-58
2021/03/22 04:57:27;;;;;;;;;9.00;9.00;;;;;8.76;38.44;98383.03;6162070;28;127390;-58
2021/03/22 05:00:31;;;;;;;;;9.00;8.40;;;;;8.74;38.58;98385.97;6157522;28;124540;-58
2021/03/22 05:03:32;;;;;;;;;11.60;10.00;;;;;8.70;38.91;98382.88;6160559;28;127215;-58
2021/03/22 05:06:34;;;;;;;;;10.00;9.40;;;;;8.75;39.13;98386.78;6140078;28;126509;-57
2021/03/22 05:09:35;;;;;;;;;11.00;10.00;;;;;8.79;39.36;98401.41;6135846;28;127468;-57
2021/03/22 05:12:37;;;;;;;;;12.00;10.00;;;;;8.74;39.32;98390.50;6150217;28;127523;-58
2021/03/22 05:15:39;;;;;;;;;10.00;9.60;;;;;8.43;39.58;98346.56;6146376;28;125470;-58
2021/03/22 05:18:41;;;;;;;;;12.00;11.00;;;;;8.74;39.60;98406.63;6136366;28;125044;-58
2021/03/22 05:21:42;;;;;;;;;9.00;8.20;;;;;8.75;39.52;98405.59;6139243;28;126427;-58
2021/03/22 05:24:44;;;;;;;;;11.50;10.25;;;;;8.62;39.83;98409.22;6149959;28;126373;-58
2021/03/22 05:27:46;;;;;;;;;11.00;11.00;;;;;8.65;39.76;98439.16;6147116;28;125285;-58
2021/03/22 05:30:48;;;;;;;;;15.00;13.00;;;;;8.78;39.80;98429.34;6161797;28;128340;-58
2021/03/22 05:33:50;;;;;;;;;13.00;13.00;;;;;8.67;40.12;98428.19;6161612;28;124846;-58
2021/03/22 05:36:52;;;;;;;;;13.80;12.80;;;;;8.53;40.50;98422.13;6139359;28;125131;-57
2021/03/22 05:39:53;;;;;;;;;13.00;12.50;;;;;8.37;40.68;98403.84;6137397;28;125518;-58
2021/03/22 05:43:13;;;;;;;;;15.00;13.00;;;;;8.66;40.69;98437.28;6138377;28;125487;-58
2021/03/22 05:46:17;;;;;;;;;13.00;13.00;;;;;8.66;40.48;98439.97;6145617;28;124801;-58
2021/03/22 05:49:46;;;;;;;;;14.00;13.00;;;;;8.84;40.27;98447.28;6144197;28;126304;-58
2021/03/22 05:53:06;;;;;;;;;14.00;14.00;;;;;8.89;40.22;98452.81;6161475;28;126885;-58
2021/03/22 05:56:17;;;;;;;;;16.60;15.60;;;;;8.91;40.23;98454.22;6161171;28;125888;-58
2021/03/22 05:59:25;;;;;;;;;14.00;14.00;;;;;8.95;40.14;98459.97;6157321;28;127827;-58
2021/03/22 06:02:46;;;;;;;;;17.00;15.40;;;;;8.85;40.09;98456.97;6151697;28;127329;-58
2021/03/22 06:06:11;;;;;;;;;15.40;14.40;;;;;8.90;40.26;98471.38;6150602;28;125731;-58
2021/03/22 06:09:49;;;;;;;;;14.80;13.20;;;;;9.00;40.40;98476.25;6143298;28;124960;-58
2021/03/22 06:12:58;;;;;;;;;19.40;16.00;;;;;9.02;40.13;98466.94;6149655;28;126207;-58
2021/03/22 06:16:16;;;;;;;;;15.00;15.00;;;;;8.97;40.30;98472.16;6147851;28;126534;-58
2021/03/22 06:19:18;;;;;;;;;16.00;15.00;;;;;9.02;40.11;98479.56;6143803;28;125760;-58
2021/03/22 06:22:28;;;;;;;;;17.00;15.00;;;;;9.08;39.54;98484.06;6134864;28;126388;-58
2021/03/22 06:25:32;;;;;;;;;13.25;13.25;;;;;9.18;39.93;98479.00;6145854;28;126435;-58
2021/03/22 06:28:38;;;;;;;;;15.00;14.40;;;;;9.31;39.72;98483.41;6133106;28;128067;-57
2021/03/22 06:31:42;;;;;;;;;13.00;12.00;;;;;9.41;39.19;98479.16;6154552;28;125476;-58
2021/03/22 06:34:57;;;;;;;;;15.80;14.80;;;;;9.49;38.70;98473.47;6155631;28;126296;-58
2021/03/22 06:37:59;;;;;;;;;13.50;13.50;;;;;9.55;38.67;98475.25;6155825;28;125417;-58
2021/03/22 06:41:26;;;;;;;;;12.80;11.80;;;;;9.64;38.11;98483.00;6154307;28;125736;-58
2021/03/22 06:44:33;;;;;;;;;13.00;13.00;;;;;9.91;38.07;98485.16;6157679;28;125885;-58
2021/03/22 06:47:35;;;;;;;;;11.00;11.00;;;;;10.13;37.40;98471.19;6139318;28;126861;-58
2021/03/22 06:50:36;;;;;;;;;14.00;13.00;;;;;10.60;36.80;98493.75;6135400;28;125245;-57
2021/03/22 06:53:53;;;;;;;;;12.60;12.60;;;;;11.07;36.27;98497.31;6150728;28;128545;-58
2021/03/22 06:57:08;;;;;;;;;12.00;11.50;;;;;11.39;35.11;98503.16;6157614;28;125044;-57
2021/03/22 07:00:18;;;;;;;;;13.50;13.00;;;;;11.90;34.12;98503.22;6152751;28;127023;-58
2021/03/22 07:03:26;;;;;;;;;12.20;11.20;;;;;12.06;33.38;98505.19;6153867;28;125442;-57
2021/03/22 07:06:27;;;;;;;;;13.20;13.00;;;;;12.27;33.33;98517.19;6149390;28;125351;-57
2021/03/22 07:09:35;;;;;;;;;11.00;10.00;;;;;12.49;32.97;98498.41;6158394;28;126666;-58
2021/03/22 07:12:39;;;;;;;;;14.60;14.00;;;;;13.24;32.26;98520.50;6172408;28;126013;-57
2021/03/22 07:15:41;;;;;;;;;12.60;10.60;;;;;13.45;30.84;98483.72;6157788;28;127161;-57
2021/03/22 07:19:04;;;;;;;;;14.00;12.00;;;;;14.72;29.51;98529.41;6157420;28;124103;-58
2021/03/22 07:22:19;;;;;;;;;13.25;11.00;;;;;15.67;27.96;98525.00;6159017;28;126033;-58
2021/03/22 07:25:38;;;;;;;;;12.00;12.00;;;;;16.41;26.91;98528.34;6157357;28;123723;-57
2021/03/22 07:29:07;;;;;;;;;11.00;10.00;;;;;17.17;25.79;98533.88;6135072;28;126159;-57
2021/03/22 07:32:26;;;;;;;;;10.00;9.40;;;;;18.11;25.06;98541.38;6148597;28;125166;-58
2021/03/22 07:35:28;;;;;;;;;11.00;10.40;;;;;18.94;23.74;98542.31;6162396;28;125135;-58
2021/03/22 07:39:11;;;;;;;;;10.50;9.00;;;;;19.80;22.12;98543.47;6162844;28;127332;-57
2021/03/22 07:42:24;;;;;;;;;9.00;9.00;;;;;20.70;21.09;98544.31;6169881;28;127134;-57
2021/03/22 07:45:26;;;;;;;;;10.00;8.25;;;;;21.30;20.76;98546.44;6162696;28;126158;-58
2021/03/22 07:48:40;;;;;;;;;9.00;7.20;;;;;21.57;19.69;98557.47;6163158;28;126035;-58
2021/03/22 07:52:02;;;;;;;;;7.75;7.75;;;;;21.94;19.38;98556.56;6159747;28;128496;-57
2021/03/22 07:55:15;;;;;;;;;9.60;8.60;;;;;22.31;19.62;98550.88;6154750;28;124812;-58
2021/03/22 07:58:28;;;;;;;;;9.40;8.00;;;;;22.73;19.03;98554.38;6150804;28;126175;-58
2021/03/22 08:01:56;;;;;;;;;8.00;8.00;;;;;23.11;18.28;98554.91;6139019;28;125981;-57
2021/03/22 08:05:11;;;;;;;;;6.00;5.67;;;;;23.42;17.81;98557.69;6162869;28;125787;-57
2021/03/22 08:08:34;;;;;;;;;9.00;8.00;;;;;23.70;17.70;98562.75;6163383;28;126052;-58
2021/03/22 08:12:00;;;;;;;;;8.60;8.00;;;;;24.07;17.17;98555.16;6153800;28;125925;-58
2021/03/22 08:15:42;;;;;;;;;7.00;6.00;;;;;24.43;15.88;98553.06;6159668;28;127299;-58
2021/03/22 08:18:52;;;;;;;;;7.00;6.00;;;;;24.53;15.60;98551.97;6160966;28;125209;-58
2021/03/22 08:22:21;;;;;;;;;6.25;6.00;;;;;24.99;16.32;98552.19;6160560;28;126041;-58
2021/03/22 08:25:28;;;;;;;;;6.00;5.00;;;;;25.40;15.62;98554.47;6162012;28;124740;-58
2021/03/22 08:28:47;;;;;;;;;6.00;5.00;;;;;25.51;14.50;98548.59;6141903;28;124705;-58
2021/03/22 08:32:20;;;;;;;;;4.75;4.75;;;;;25.70;14.44;98557.34;6136573;28;123931;-57
2021/03/22 08:35:43;;;;;;;;;5.00;5.00;;;;;25.90;14.78;98562.19;6136241;28;125708;-58
2021/03/22 08:38:50;;;;;;;;;4.60;4.60;;;;;25.92;14.10;98562.63;6148082;28;125184;-58
2021/03/22 08:41:59;;;;;;;;;4.75;4.00;;;;;25.67;13.61;98560.75;6160623;28;127060;-58
2021/03/22 08:45:32;;;;;;;;;5.00;4.60;;;;;25.84;14.12;98561.53;6161282;28;126572;-57
2021/03/22 08:48:35;;;;;;;;;5.00;4.00;;;;;25.83;13.63;98565.44;6161681;28;127712;-58
2021/03/22 08:51:37;;;;;;;;;3.00;3.00;;;;;25.72;13.37;98535.72;6161631;28;128556;-58
2021/03/22 08:54:38;;;;;;;;;7.00;5.60;;;;;26.06;13.63;98566.00;6156880;28;127651;-57
2021/03/22 08:57:52;;;;;;;;;3.40;3.40;;;;;26.18;13.27;98543.22;6161758;28;126058;-57
2021/03/22 09:01:09;;;;;;;;;3.00;3.00;;;;;26.84;13.10;98579.44;6176428;28;126018;-58
2021/03/22 09:04:20;;;;;;;;;3.00;3.00;;;;;26.90;12.93;98576.19;6160747;28;127068;-58
2021/03/22 09:07:26;;;;;;;;;5.00;4.00;;;;;26.55;12.67;98586.59;6161316;28;125799;-58
2021/03/22 09:10:39;;;;;;;;;4.60;3.60;;;;;26.66;13.09;98590.63;6160193;28;125388;-57
2021/03/22 09:13:52;;;;;;;;;4.60;4.00;;;;;26.68;12.86;98566.19;6160532;28;125664;-58
2021/03/22 09:16:54;;;;;;;;;3.00;3.00;;;;;26.78;12.90;98578.81;6160757;28;124614;-58
2021/03/22 09:20:14;;;;;;;;;4.00;4.00;;;;;26.52;13.50;98589.25;6161212;28;125130;-58
2021/03/22 09:23:36;;;;;;;;;3.00;3.00;;;;;26.28;13.05;98557.50;6160760;28;127739;-58
2021/03/22 09:26:50;;;;;;;;;3.00;3.00;;;;;26.47;13.29;98573.66;6160999;28;126997;-58
2021/03/22 09:29:53;;;;;;;;;4.00;3.00;;;;;26.51;13.25;98576.56;6160955;28;125670;-57
2021/03/22 09:32:54;;;;;;;;;4.00;3.00;;;;;26.99;13.40;98581.66;6160807;28;125723;-57
2021/03/22 09:36:10;;;;;;;;;3.00;3.00;;;;;27.23;12.71;98586.50;6161195;28;125202;-58
2021/03/22 09:39:14;;;;;;;;;4.00;3.00;;;;;27.43;12.25;98578.19;6161118;28;126592;-58
2021/03/22 09:42:23;;;;;;;;;2.60;2.60;;;;;27.52;12.25;98562.31;6176268;28;125969;-58
2021/03/22 09:45:25;;;;;;;;;3.50;3.00;;;;;26.62;12.14;98552.91;6159357;28;125037;-58
2021/03/22 09:48:30;;;;;;;;;2.60;2.60;;;;;26.20;11.81;98554.72;6158032;28;126717;-58
2021/03/22 09:51:40;;;;;;;;;3.00;3.00;;;;;26.38;12.68;98588.66;6160553;28;125796;-58
2021/03/22 09:54:43;;;;;;;;;2.60;2.20;;;;;25.96;12.89;98574.66;6160775;28;126671;-58
2021/03/22 09:57:45;;;;;;;;;2.00;2.00;;;;;25.50;13.04;98575.38;6155083;28;126979;-58
2021/03/22 10:01:04;;;;;;;;;3.60;3.00;;;;;25.05;13.46;98576.88;6160600;28;125269;-58
2021/03/22 10:04:11;;;;;;;;;3.20;3.20;;;;;23.89;13.73;98573.56;6174825;28;125331;-58
2021/03/22 10:07:29;;;;;;;;;2.80;2.00;;;;;22.95;14.44;98576.44;6160247;28;124814;-58
2021/03/22 10:10:36;;;;;;;;;1.75;1.75;;;;;21.90;14.93;98533.53;6159071;28;125993;-58
2021/03/22 10:13:44;;;;;;;;;1.80;1.00;;;;;21.33;14.85;98571.31;6147249;28;126942;-58
2021/03/22 10:16:50;;;;;;;;;2.60;2.60;;;;;20.35;15.08;98546.69;6143683;28;125809;-58
2021/03/22 10:20:00;;;;;;;;;3.00;3.00;;;;;20.54;15.90;98572.19;6145628;28;126725;-58
2021/03/22 10:23:38;;;;;;;;;2.00;2.00;;;;;21.48;15.23;98560.09;6147436;28;125746;-58
2021/03/22 10:26:44;;;;;;;;;3.00;2.00;;;;;22.56;14.96;98560.50;6146209;28;126006;-57
2021/03/22 10:29:46;;;;;;;;;3.00;3.00;;;;;23.67;13.97;98557.06;6144839;28;125008;-57
2021/03/22 10:32:54;;;;;;;;;2.00;2.00;;;;;24.66;13.01;98567.53;6158945;28;125400;-57
2021/03/22 10:36:00;;;;;;;;;2.00;1.20;;;;;25.51;13.49;98571.47;6157329;28;127022;-57
2021/03/22 10:39:06;;;;;;;;;2.00;2.00;;;;;24.46;13.87;98573.66;6157887;28;126003;-57
2021/03/22 10:42:36;;;;;;;;;3.00;2.00;;;;;23.38;14.01;98579.53;6158135;28;124766;-57
2021/03/22 10:45:41;;;;;;;;;2.00;2.00;;;;;22.35;13.95;98570.28;6156940;28;126045;-58
2021/03/22 10:48:43;;;;;;;;;1.80;1.80;;;;;21.35;14.47;98549.91;6157543;28;125881;-58
2021/03/22 10:51:49;;;;;;;;;3.00;3.00;;;;;21.10;14.91;98569.47;6156487;28;127810;-57
2021/03/22 10:54:52;;;;;;;;;2.80;2.00;;;;;20.47;15.13;98564.34;6151580;28;127069;-58
2021/03/22 10:57:55;;;;;;;;;2.00;2.00;;;;;19.77;15.52;98560.47;6158231;28;126865;-58
2021/03/22 11:01:03;;;;;;;;;3.00;2.00;;;;;18.93;16.20;98521.53;6150616;28;124837;-57
2021/03/22 11:04:17;;;;;;;;;2.00;1.25;;;;;18.59;15.92;98556.19;6133903;28;125893;-57
2021/03/22 11:07:23;;;;;;;;;2.00;2.00;;;;;18.11;17.09;98571.38;6134449;28;125792;-57
2021/03/22 11:10:25;;;;;;;;;2.00;1.00;;;;;17.63;16.93;98565.50;6156560;28;124612;-57
2021/03/22 11:13:31;;;;;;;;;1.00;1.00;;;;;17.12;17.15;98559.22;6153998;28;127457;-57
2021/03/22 11:16:45;;;;;;;;;3.00;3.00;;;;;16.81;17.98;98574.69;6153533;28;124618;-57
2021/03/22 11:19:49;;;;;;;;;2.80;2.00;;;;;16.51;19.17;98579.25;6141319;28;97417;-57
2021/03/22 11:22:52;;;;;;;;;2.00;2.00;;;;;16.12;20.30;98592.41;6152943;28;126963;-57
2021/03/22 11:25:55;;;;;;;;;2.00;2.00;;;;;15.76;21.66;98594.91;6153507;28;126537;-57
2021/03/22 11:29:15;;;;;;;;;2.00;1.20;;;;;15.68;22.31;98587.25;6155854;28;126900;-57
2021/03/22 11:32:22;;;;;;;;;2.00;2.00;;;;;15.83;22.16;98592.78;6156610;28;124630;-57
2021/03/22 11:35:30;;;;;;;;;2.00;2.00;;;;;15.81;22.01;98597.66;6145579;28;124745;-56
2021/03/22 11:38:43;;;;;;;;;2.00;2.00;;;;;15.77;21.94;98574.81;6129577;28;125162;-56
2021/03/22 11:41:53;;;;;;;;;1.00;1.00;;;;;16.08;21.17;98596.75;6133736;28;124806;-56
2021/03/22 11:44:55;;;;;;;;;1.00;1.00;;;;;15.91;21.03;98564.28;6133503;28;124845;-56
2021/03/22 11:47:57;;;;;;;;;3.00;2.00;;;;;15.91;21.31;98572.44;6143019;28;125581;-57
2021/03/22 11:51:10;;;;;;;;;1.80;1.80;;;;;16.05;22.09;98608.94;6142238;28;126737;-56
2021/03/22 11:54:12;;;;;;;;;2.00;1.25;;;;;15.98;21.74;98583.88;6144142;28;125889;-56
2021/03/22 11:57:19;;;;;;;;;2.00;2.00;;;;;15.82;23.04;98596.59;6143125;28;125413;-56
2021/03/22 12:00:20;;;;;;;;;3.00;2.00;;;;;16.27;24.40;98604.16;6143015;28;126211;-58
2021/03/22 12:03:30;;;;;;;;;3.00;3.00;;;;;16.31;24.35;98596.31;6140615;28;127759;-57
2021/03/22 12:06:34;;;;;;;;;2.00;2.00;;;;;16.29;24.15;98593.84;6155684;28;125044;-58
2021/03/22 12:09:39;;;;;;;;;3.00;2.00;;;;;16.09;23.80;98592.91;6156237;28;126950;-58
2021/03/22 12:12:41;;;;;;;;;2.00;2.00;;;;;15.88;24.14;98592.00;6155599;28;126272;-58
2021/03/22 12:15:42;;;;;;;;;3.50;3.00;;;;;15.65;24.30;98592.38;6157312;28;125502;-58
2021/03/22 12:18:44;;;;;;;;;4.00;3.00;;;;;15.42;23.85;98594.38;6155950;28;127576;-58
2021/03/22 12:21:45;;;;;;;;;3.40;3.00;;;;;15.31;24.73;98599.97;6159289;28;125735;-57
2021/03/22 12:24:50;;;;;;;;;4.25;3.00;;;;;15.22;24.58;98598.81;6160600;28;124131;-55
2021/03/22 12:27:52;;;;;;;;;2.40;2.00;;;;;15.13;24.36;98590.34;6159303;28;126159;-56
2021/03/22 12:30:54;;;;;;;;;3.00;2.00;;;;;14.95;24.49;98583.41;6158444;28;126369;-56
2021/03/22 12:33:58;;;;;;;;;3.40;3.00;;;;;14.93;24.45;98582.81;6159326;28;126367;-57
2021/03/22 12:37:00;;;;;;;;;4.00;3.00;;;;;14.56;24.50;98550.13;6159874;28;126199;-56
2021/03/22 12:40:05;;;;;;;;;3.00;3.00;;;;;14.70;24.65;98578.53;6158992;28;125125;-56
2021/03/22 12:43:07;;;;;;;;;4.20;4.20;;;;;14.86;24.84;98579.47;6141090;28;126172;-56
2021/03/22 12:46:08;;;;;;;;;4.00;4.00;;;;;14.74;23.94;98574.22;6135299;28;126659;-56
2021/03/22 12:49:13;;;;;;;;;3.20;3.00;;;;;14.74;23.83;98576.94;6135388;28;127206;-56
2021/03/22 12:52:14;;;;;;;;;3.60;3.00;;;;;15.11;23.31;98565.31;6135450;28;125853;-56
2021/03/22 12:55:31;;;;;;;;;4.00;4.00;;;;;15.32;22.75;98571.75;6136026;28;125841;-56
2021/03/22 12:58:33;;;;;;;;;4.00;4.00;;;;;15.32;22.28;98571.75;6135330;28;124962;-56
2021/03/22 13:01:35;;;;;;;;;3.00;2.00;;;;;15.48;23.31;98560.75;6143791;28;126933;-56
2021/03/22 13:04:37;;;;;;;;;3.60;3.60;;;;;15.64;21.83;98567.09;6160006;28;125147;-56
2021/03/22 13:07:39;;;;;;;;;4.50;3.50;;;;;15.69;21.86;98586.16;6160031;28;125173;-56
2021/03/22 13:10:41;;;;;;;;;4.00;3.00;;;;;15.56;21.69;98559.47;6160188;28;126984;-56
2021/03/22 13:13:46;;;;;;;;;3.00;2.60;;;;;15.53;21.76;98592.59;6160002;28;126205;-56
2021/03/22 13:16:48;;;;;;;;;4.00;4.00;;;;;15.29;22.64;98592.09;6159628;28;126761;-57
2021/03/22 13:19:50;;;;;;;;;4.00;4.00;;;;;15.05;24.55;98601.66;6159233;28;126416;-56
2021/03/22 13:22:51;;;;;;;;;4.00;4.00;;;;;14.89;24.91;98603.41;6159501;28;128641;-57
2021/03/22 13:25:59;;;;;;;;;5.00;4.00;;;;;14.63;24.61;98564.34;6159760;28;126556;-57
2021/03/22 13:29:00;;;;;;;;;3.60;3.60;;;;;14.77;24.31;98591.88;6159408;28;127324;-56
2021/03/22 13:32:02;;;;;;;;;4.00;3.75;;;;;14.54;24.17;98556.91;6147393;28;126514;-56
2021/03/22 13:35:06;;;;;;;;;3.20;3.20;;;;;14.79;23.86;98549.03;6135913;28;126478;-56
2021/03/22 13:38:13;;;;;;;;;3.00;3.00;;;;;15.48;23.57;98587.91;6158978;28;126295;-56
2021/03/22 13:41:23;;;;;;;;;2.00;2.00;;;;;15.92;22.90;98577.63;6159093;28;125036;-56
2021/03/22 13:44:24;;;;;;;;;4.00;3.00;;;;;16.08;22.27;98588.59;6146906;28;124669;-56
2021/03/22 13:47:26;;;;;;;;;4.00;3.25;;;;;16.19;21.82;98588.34;6135038;28;125474;-56
2021/03/22 13:50:28;;;;;;;;;3.00;3.00;;;;;16.20;21.68;98575.56;6150570;28;125991;-56
2021/03/22 13:53:38;;;;;;;;;4.00;3.00;;;;;16.15;20.90;98595.41;6174284;28;126628;-56
2021/03/22 13:56:39;;;;;;;;;2.00;2.00;;;;;16.03;20.49;98579.28;6159226;28;124797;-56
2021/03/22 13:59:41;;;;;;;;;3.60;3.40;;;;;15.99;20.53;98578.19;6160031;28;125976;-56
2021/03/22 14:02:44;;;;;;;;;2.40;2.00;;;;;16.03;20.67;98583.91;6159886;28;125176;-57
2021/03/22 14:05:47;;;;;;;;;3.60;3.00;;;;;16.30;20.46;98583.78;6159401;28;127416;-57
2021/03/22 14:08:50;;;;;;;;;3.80;2.80;;;;;16.36;20.21;98580.00;6159254;28;126702;-56
2021/03/22 14:11:53;;;;;;;;;3.00;2.60;;;;;16.26;20.00;98561.75;6158798;28;125544;-58
2021/03/22 14:14:55;;;;;;;;;3.00;3.00;;;;;16.35;19.82;98581.09;6156797;28;126801;-57
2021/03/22 14:17:56;;;;;;;;;4.00;4.00;;;;;16.16;19.88;98558.16;6157378;28;124533;-57
2021/03/22 14:20:58;;;;;;;;;3.00;3.00;;;;;16.20;19.95;98576.41;6143784;28;126575;-57
2021/03/22 14:24:00;;;;;;;;;4.25;4.25;;;;;16.05;20.06;98581.75;6146113;28;125412;-57
2021/03/22 14:27:02;;;;;;;;;3.00;3.00;;;;;15.96;20.16;98589.59;6158825;28;127250;-57